首页
METAR-TAF:

METAR-TAF

机场 :

阿布鲁佐国际机场

佩斯卡拉, 意大利

纬度: 42-26N, 经度: 014-12E, 海拔: 10米

当前天气观测

该预报发布于1小时和9分钟前的07:50 UTC
风速5节,风向南转西南
温度 18°C
湿度 68%
气压 1020 hPa
能见度10公里或以上
1500米以下无云,无积雨云

METAR: LIBP 170750Z 21005KT CAVOK 18/12 Q1020

时间: 10:59 (08:59 UTC)

预报

该预报发布于3小时和59分钟前的05:00 UTC
预报有效从17日的 06点(UTC)到 18日的 06点(UTC)
风速5节,风向多变
能见度10公里或以上
少量云层高于4000英尺
成为
从 17日的 10点(UTC)到 17日的 12点(UTC)
风速10节,风向东北
成为
从 17日的 16点(UTC)到 17日的 18点(UTC)
风速5节,风向多变

TAF: LIBP 170500Z 1706/1806 VRB05KT 9999 FEW040 BECMG 1710/1712 05010KT BECMG 1716/1718 VRB05KT

超过4000个机场的气象观测和天气预报(METAR&TAF报告)。

可查询的气象台以黄色和红色小点在地图上表示。

将鼠标移到小点上方,可查看气象台名称。

然后点击查看天气观测和预报。

如需切换地图:点击带黑十字的绿色按钮放大地图;点击带横线的绿色按钮缩小地图;或者点击绿色箭头查看邻近地区的地图。


METAR-TAF: